Time;durP1;ratioP1;P1;durP2;ratioP2;P2;SDS_P1;SDS_P2;PMS_P1;PMS_P2;Temp;Humidity;BMP_temperature;BMP_pressure;BME280_temperature;BME280_humidity;BME280_pressure;Samples;Min_cycle;Max_cycle;Signal;HPM_P1;HPM_P2
2021/11/12 00:02:34;;;;;;;37.05;28.15;;;10.00;99.90;;;;;;2071587;28;20038;-68
2021/11/12 00:13:25;;;;;;;35.92;27.77;;;10.00;99.90;;;;;;2071746;28;20026;-68
2021/11/12 00:14:26;;;;;;;39.70;30.25;;;9.90;99.90;;;;;;2071572;28;20785;-68
2021/11/12 00:15:26;;;;;;;40.03;29.42;;;9.90;99.90;;;;;;2071795;28;20026;-68
2021/11/12 00:16:28;;;;;;;40.10;30.58;;;10.00;99.90;;;;;;2072048;28;20104;-69
2021/11/12 00:17:32;;;;;;;37.53;28.42;;;10.00;99.90;;;;;;2071690;28;20109;-68
2021/11/12 00:18:35;;;;;;;37.83;27.98;;;10.00;99.90;;;;;;2071335;28;20362;-69
2021/11/12 00:19:36;;;;;;;37.72;27.23;;;10.00;99.90;;;;;;2071425;28;20021;-68
2021/11/12 00:20:36;;;;;;;41.25;30.65;;;10.00;99.90;;;;;;2071226;28;20068;-69
2021/11/12 00:21:37;;;;;;;40.13;29.27;;;10.00;99.90;;;;;;2067100;28;20026;-68
2021/11/12 00:22:37;;;;;;;39.53;29.88;;;10.00;99.90;;;;;;2068890;28;20018;-68
2021/11/12 00:23:38;;;;;;;43.28;29.05;;;10.00;99.90;;;;;;2071183;28;20526;-68
2021/11/12 00:24:39;;;;;;;36.53;27.38;;;10.00;99.90;;;;;;2071761;28;20030;-68
2021/11/12 00:25:42;;;;;;;38.30;26.90;;;10.00;99.90;;;;;;2071483;28;20076;-68
2021/11/12 00:26:43;;;;;;;34.70;25.90;;;10.00;99.90;;;;;;2071675;28;20030;-68
2021/11/12 00:27:44;;;;;;;40.47;30.33;;;10.00;99.90;;;;;;2071476;28;20462;-68
2021/11/12 00:28:57;;;;;;;39.40;29.67;;;10.00;99.90;;;;;;2071098;28;20468;-68
2021/11/12 00:30:24;;;;;;;42.55;27.08;;;10.00;99.90;;;;;;2071682;28;20018;-68
2021/11/12 00:31:43;;;;;;;35.25;27.38;;;10.00;99.90;;;;;;2071485;28;20034;-68
2021/11/12 00:35:33;;;;;;;36.08;27.75;;;9.90;99.90;;;;;;2054060;28;20134;-68
2021/11/12 00:38:54;;;;;;;38.83;28.80;;;9.90;99.90;;;;;;2071050;28;20477;-68
2021/11/12 00:40:02;;;;;;;36.00;27.27;;;9.90;99.90;;;;;;2071367;28;20045;-68
2021/11/12 00:43:44;;;;;;;33.58;25.38;;;9.80;99.90;;;;;;2071503;28;20065;-68
2021/11/12 00:45:00;;;;;;;33.53;27.50;;;9.80;99.90;;;;;;2071524;28;20038;-69
2021/11/12 00:46:11;;;;;;;37.72;28.45;;;9.80;99.90;;;;;;2071284;28;20079;-68
2021/11/12 00:48:36;;;;;;;42.28;29.63;;;9.80;99.90;;;;;;2068011;28;20486;-69
2021/11/12 00:49:40;;;;;;;39.13;27.85;;;9.70;99.90;;;;;;2070522;28;20030;-68
2021/11/12 00:51:51;;;;;;;36.38;26.50;;;9.80;99.90;;;;;;2068975;28;20694;-68
2021/11/12 00:53:56;;;;;;;42.13;30.05;;;9.70;99.90;;;;;;2071559;28;20021;-68
2021/11/12 00:54:57;;;;;;;40.15;27.83;;;9.70;99.90;;;;;;2071285;28;20054;-68
2021/11/12 00:55:57;;;;;;;32.67;26.20;;;9.70;99.90;;;;;;2071557;28;20080;-69
2021/11/12 00:56:58;;;;;;;34.50;25.23;;;9.70;99.90;;;;;;2071341;28;20030;-68
2021/11/12 00:57:59;;;;;;;38.30;27.88;;;9.70;99.90;;;;;;2071580;28;20026;-68
2021/11/12 00:59:01;;;;;;;38.05;29.35;;;9.70;99.90;;;;;;2070801;28;20030;-68
2021/11/12 01:00:04;;;;;;;35.08;27.05;;;9.70;99.90;;;;;;2070688;28;20037;-68
2021/11/12 01:01:05;;;;;;;37.60;28.70;;;9.70;99.90;;;;;;2069759;28;20486;-68
2021/11/12 01:02:06;;;;;;;43.78;30.63;;;9.70;99.90;;;;;;2070331;28;20429;-69
2021/11/12 01:03:06;;;;;;;37.70;28.83;;;9.70;99.90;;;;;;2070481;28;20041;-68
2021/11/12 01:04:10;;;;;;;36.83;26.70;;;9.70;99.90;;;;;;2071423;28;20026;-68
2021/11/12 01:05:11;;;;;;;43.78;30.13;;;9.70;99.90;;;;;;2071135;28;20037;-69
2021/11/12 01:06:12;;;;;;;31.88;25.88;;;9.70;99.90;;;;;;2071386;28;20449;-68
2021/11/12 01:07:13;;;;;;;34.63;26.48;;;9.70;99.90;;;;;;2071316;28;20033;-68
2021/11/12 01:08:13;;;;;;;40.88;28.58;;;9.70;99.90;;;;;;2070818;28;20022;-68
2021/11/12 01:09:16;;;;;;;40.58;28.95;;;9.70;99.90;;;;;;2071087;28;20029;-68
2021/11/12 01:10:18;;;;;;;36.03;28.30;;;9.70;99.90;;;;;;2071481;28;20109;-68
2021/11/12 01:11:21;;;;;;;34.47;25.90;;;9.70;99.90;;;;;;2071100;28;20535;-68
2021/11/12 01:12:21;;;;;;;31.95;24.52;;;9.70;99.90;;;;;;2071334;28;20030;-68
2021/11/12 01:13:24;;;;;;;35.33;25.27;;;9.70;99.90;;;;;;2071202;28;20034;-68
2021/11/12 01:14:26;;;;;;;38.15;27.65;;;9.60;99.90;;;;;;2070810;28;20032;-68
2021/11/12 01:15:27;;;;;;;38.78;26.95;;;9.70;99.90;;;;;;2071185;28;20364;-68
2021/11/12 01:16:28;;;;;;;38.72;29.05;;;9.70;99.90;;;;;;2071207;28;20382;-68
2021/11/12 01:17:29;;;;;;;36.20;26.92;;;9.70;99.90;;;;;;2071299;28;20034;-68
2021/11/12 01:18:30;;;;;;;36.53;29.05;;;9.60;99.90;;;;;;2071310;28;20030;-68
2021/11/12 01:19:31;;;;;;;43.75;30.55;;;9.60;99.90;;;;;;2072751;28;20033;-68
2021/11/12 01:20:31;;;;;;;37.10;28.33;;;9.60;99.90;;;;;;2073016;28;20037;-68
2021/11/12 01:21:32;;;;;;;35.03;26.63;;;9.60;99.90;;;;;;2072834;28;20024;-68
2021/11/12 01:22:33;;;;;;;40.00;30.02;;;9.60;99.90;;;;;;2072714;28;20060;-68
2021/11/12 01:23:35;;;;;;;32.92;26.90;;;9.60;99.90;;;;;;2072909;28;20025;-68
2021/11/12 01:24:36;;;;;;;38.63;29.80;;;9.60;99.90;;;;;;2069666;28;20103;-68
2021/11/12 01:25:37;;;;;;;36.30;28.95;;;9.60;99.90;;;;;;2066499;28;20149;-68
2021/11/12 01:26:38;;;;;;;41.25;30.58;;;9.60;99.90;;;;;;2071824;28;20022;-69
2021/11/12 01:27:39;;;;;;;44.15;29.45;;;9.60;99.90;;;;;;2076394;28;20083;-68
2021/11/12 01:28:41;;;;;;;34.38;27.02;;;9.60;99.90;;;;;;2073485;28;20357;-68
2021/11/12 01:29:42;;;;;;;39.08;29.27;;;9.60;99.90;;;;;;2072340;28;20332;-68
2021/11/12 01:30:43;;;;;;;42.47;28.08;;;9.60;99.90;;;;;;2072754;28;20476;-69
2021/11/12 01:31:44;;;;;;;34.72;27.02;;;9.60;99.90;;;;;;2072791;28;20026;-68
2021/11/12 01:32:47;;;;;;;38.10;29.42;;;9.50;99.90;;;;;;2072877;28;20138;-68
2021/11/12 01:33:48;;;;;;;39.33;29.60;;;9.60;99.90;;;;;;2072830;28;20014;-68
2021/11/12 01:34:52;;;;;;;37.20;28.63;;;9.50;99.90;;;;;;2072687;28;20056;-68
2021/11/12 01:35:55;;;;;;;38.63;28.67;;;9.50;99.90;;;;;;2072364;28;20018;-69
2021/11/12 01:36:56;;;;;;;39.67;29.48;;;9.50;99.90;;;;;;2072851;28;20030;-69
2021/11/12 01:37:57;;;;;;;48.30;30.80;;;9.50;99.90;;;;;;2072660;28;20098;-68
2021/11/12 01:39:01;;;;;;;36.55;27.50;;;9.50;99.90;;;;;;2072356;28;20026;-68
2021/11/12 01:40:06;;;;;;;34.65;27.20;;;9.50;99.90;;;;;;2072642;28;20030;-68
2021/11/12 01:41:07;;;;;;;37.10;27.02;;;9.50;99.90;;;;;;2073181;28;20048;-68
2021/11/12 01:42:08;;;;;;;40.42;29.85;;;9.50;99.90;;;;;;2072660;28;20049;-68
2021/11/12 01:43:23;;;;;;;37.72;29.48;;;9.50;99.90;;;;;;2070342;28;20030;-68
2021/11/12 01:44:40;;;;;;;37.00;27.10;;;9.50;99.90;;;;;;2064445;28;20034;-68
2021/11/12 01:46:05;;;;;;;36.85;27.27;;;9.50;99.90;;;;;;2072722;28;20030;-68
2021/11/12 01:48:20;;;;;;;37.85;28.27;;;9.40;99.90;;;;;;2072482;28;20473;-68
2021/11/12 01:49:34;;;;;;;32.67;25.15;;;9.40;99.90;;;;;;2064642;28;20053;-68
2021/11/12 01:50:35;;;;;;;38.35;28.63;;;9.40;99.90;;;;;;2064622;28;20029;-68
2021/11/12 01:52:43;;;;;;;40.92;30.58;;;9.40;99.90;;;;;;2072486;28;20030;-68
2021/11/12 01:53:49;;;;;;;32.38;26.02;;;9.30;99.90;;;;;;2072965;28;20143;-69
2021/11/12 01:55:38;;;;;;;34.25;27.42;;;9.30;99.90;;;;;;2070092;28;20384;-68
2021/11/12 01:57:50;;;;;;;43.50;30.70;;;9.30;99.90;;;;;;2072329;28;20468;-68
2021/11/12 02:00:01;;;;;;;40.40;29.90;;;9.30;99.90;;;;;;2072506;28;20109;-68
2021/11/12 02:01:03;;;;;;;40.20;30.10;;;9.20;99.90;;;;;;2072460;28;20081;-68
2021/11/12 02:02:09;;;;;;;50.00;30.08;;;9.30;99.90;;;;;;2072849;28;20398;-68
2021/11/12 02:03:10;;;;;;;39.35;30.73;;;9.20;99.90;;;;;;2071969;28;20034;-68
2021/11/12 02:04:13;;;;;;;38.35;27.63;;;9.20;99.90;;;;;;2072959;28;20081;-68
2021/11/12 02:05:14;;;;;;;40.17;27.48;;;9.20;99.90;;;;;;2072005;28;20076;-68
2021/11/12 02:06:18;;;;;;;40.05;27.58;;;9.20;99.90;;;;;;2072658;28;20068;-68
2021/11/12 02:07:20;;;;;;;38.30;28.70;;;9.20;99.90;;;;;;2072568;28;20022;-68
2021/11/12 02:08:20;;;;;;;38.05;29.25;;;9.20;99.90;;;;;;2071804;28;20045;-68
2021/11/12 02:09:22;;;;;;;36.95;26.52;;;9.20;99.90;;;;;;2072236;28;20033;-69
2021/11/12 02:10:25;;;;;;;36.45;26.92;;;9.20;99.90;;;;;;2072614;28;20022;-68
2021/11/12 02:11:26;;;;;;;36.20;27.02;;;9.20;99.90;;;;;;2070777;28;20030;-68
2021/11/12 02:12:33;;;;;;;36.03;28.10;;;9.20;99.90;;;;;;2065330;28;20057;-68
2021/11/12 02:13:36;;;;;;;37.58;27.90;;;9.10;99.90;;;;;;2072214;28;20022;-68
2021/11/12 02:14:38;;;;;;;43.10;30.60;;;9.10;99.90;;;;;;2072749;28;20537;-68
2021/11/12 02:15:40;;;;;;;41.13;29.52;;;9.10;99.90;;;;;;2072340;28;20029;-68
2021/11/12 02:16:47;;;;;;;35.35;27.25;;;9.10;99.90;;;;;;2072402;28;20026;-69
2021/11/12 02:17:56;;;;;;;39.03;29.75;;;9.10;99.90;;;;;;2072662;28;20033;-68
2021/11/12 02:18:57;;;;;;;38.50;27.48;;;9.10;99.90;;;;;;2071926;28;20034;-68
2021/11/12 02:20:05;;;;;;;43.47;30.05;;;9.10;99.90;;;;;;2072289;28;20653;-69
2021/11/12 02:22:09;;;;;;;41.15;30.98;;;9.00;99.90;;;;;;2072140;28;20037;-68
2021/11/12 02:23:10;;;;;;;46.08;33.53;;;9.00;99.90;;;;;;2072717;28;20052;-68
2021/11/12 02:24:13;;;;;;;43.08;30.65;;;9.00;99.90;;;;;;2071996;28;20421;-68
2021/11/12 02:25:20;;;;;;;40.53;28.30;;;9.00;99.90;;;;;;2068944;28;20077;-68
2021/11/12 02:26:26;;;;;;;35.88;28.30;;;9.00;99.90;;;;;;2064395;28;20126;-68
2021/11/12 02:27:33;;;;;;;40.20;28.27;;;9.00;99.90;;;;;;2068279;28;20032;-69
2021/11/12 02:28:38;;;;;;;38.40;28.55;;;8.90;99.90;;;;;;2071714;28;20097;-68
2021/11/12 02:29:45;;;;;;;37.13;29.08;;;8.90;99.90;;;;;;2072535;28;20030;-68
2021/11/12 02:30:50;;;;;;;45.33;32.65;;;8.90;99.90;;;;;;2070948;28;20034;-68
2021/11/12 02:31:51;;;;;;;45.63;31.65;;;8.90;99.90;;;;;;2072554;28;20313;-68
2021/11/12 02:33:02;;;;;;;39.67;29.55;;;8.80;99.90;;;;;;2072303;28;20018;-68
2021/11/12 02:34:09;;;;;;;43.13;28.50;;;8.80;99.90;;;;;;2071910;28;20026;-68
2021/11/12 02:35:10;;;;;;;44.78;30.60;;;8.80;99.90;;;;;;2064619;28;20076;-68
2021/11/12 02:36:13;;;;;;;45.38;29.98;;;8.80;99.90;;;;;;2072384;28;20104;-68
2021/11/12 02:37:14;;;;;;;45.53;31.15;;;8.80;99.90;;;;;;2071777;28;20607;-68
2021/11/12 02:38:15;;;;;;;43.60;31.85;;;8.80;99.90;;;;;;2071281;28;20389;-68
2021/11/12 02:39:16;;;;;;;50.13;34.65;;;8.70;99.90;;;;;;2072188;28;20358;-68
2021/11/12 02:40:17;;;;;;;49.97;31.27;;;8.70;99.90;;;;;;2072471;28;20105;-68
2021/11/12 02:41:19;;;;;;;38.88;27.77;;;8.70;99.90;;;;;;2069603;28;20022;-68
2021/11/12 02:42:21;;;;;;;40.78;28.83;;;8.70;99.90;;;;;;2069939;28;20370;-68
2021/11/12 02:43:22;;;;;;;39.55;29.58;;;8.70;99.90;;;;;;2071937;28;20022;-68
2021/11/12 02:44:24;;;;;;;38.97;27.75;;;8.70;99.90;;;;;;2065798;28;20045;-69
2021/11/12 02:45:25;;;;;;;39.47;28.95;;;8.70;99.90;;;;;;2072158;28;20040;-68
2021/11/12 02:46:27;;;;;;;43.33;30.92;;;8.70;99.90;;;;;;2071865;28;20025;-68
2021/11/12 02:47:27;;;;;;;45.90;29.80;;;8.70;99.90;;;;;;2069454;28;20486;-69
2021/11/12 02:48:30;;;;;;;44.25;30.35;;;8.70;99.90;;;;;;2070803;28;20359;-68
2021/11/12 02:49:30;;;;;;;46.95;31.17;;;8.60;99.90;;;;;;2074216;28;20033;-68
2021/11/12 02:50:31;;;;;;;46.20;32.08;;;8.60;99.90;;;;;;2075630;28;20030;-68
2021/11/12 02:51:35;;;;;;;52.00;33.05;;;8.60;99.90;;;;;;2078952;28;20033;-68
2021/11/12 02:52:37;;;;;;;45.58;32.08;;;8.60;99.90;;;;;;2071688;28;20053;-68
2021/11/12 02:53:39;;;;;;;41.45;27.20;;;8.60;99.90;;;;;;2069250;28;20029;-68
2021/11/12 02:54:40;;;;;;;36.60;25.88;;;8.60;99.90;;;;;;2063312;28;20025;-68
2021/11/12 02:55:42;;;;;;;42.40;29.52;;;8.60;99.90;;;;;;2072032;28;20026;-68
2021/11/12 02:56:44;;;;;;;38.58;27.92;;;8.60;99.90;;;;;;2072030;28;20121;-68
2021/11/12 02:57:46;;;;;;;40.08;26.55;;;8.60;99.90;;;;;;2072200;28;20025;-68
2021/11/12 02:58:50;;;;;;;40.13;28.67;;;8.60;99.90;;;;;;2071423;28;20044;-68
2021/11/12 02:59:51;;;;;;;46.72;29.48;;;8.60;99.90;;;;;;2072101;28;20017;-68
2021/11/12 03:00:53;;;;;;;46.88;31.95;;;8.60;99.90;;;;;;2071213;28;20033;-68
2021/11/12 03:01:56;;;;;;;44.70;30.42;;;8.50;99.90;;;;;;2071452;28;20100;-68
2021/11/12 03:02:57;;;;;;;44.50;30.00;;;8.50;99.90;;;;;;2071607;28;20048;-68
2021/11/12 03:03:58;;;;;;;48.03;30.73;;;8.50;99.90;;;;;;2072601;28;20049;-68
2021/11/12 03:04:59;;;;;;;36.05;26.88;;;8.50;99.90;;;;;;2071833;28;20025;-68
2021/11/12 03:05:59;;;;;;;36.58;26.15;;;8.50;99.90;;;;;;2072087;28;20025;-68
2021/11/12 03:07:00;;;;;;;42.35;28.10;;;8.50;99.90;;;;;;2071386;28;20815;-69
2021/11/12 03:08:01;;;;;;;39.30;28.02;;;8.50;99.90;;;;;;2067489;28;20145;-68
2021/11/12 03:09:06;;;;;;;41.38;28.27;;;8.50;99.90;;;;;;2057149;28;20118;-68
2021/11/12 03:10:07;;;;;;;37.90;26.52;;;8.50;99.90;;;;;;2070071;28;20076;-68
2021/11/12 03:11:08;;;;;;;39.50;27.10;;;8.50;99.90;;;;;;2071370;28;20470;-68
2021/11/12 03:12:08;;;;;;;35.40;25.55;;;8.40;99.90;;;;;;2071965;28;20425;-69
2021/11/12 03:13:09;;;;;;;40.47;28.25;;;8.40;99.90;;;;;;2071793;28;20049;-68
2021/11/12 03:14:12;;;;;;;42.15;27.90;;;8.40;99.90;;;;;;2071912;28;20033;-68
2021/11/12 03:15:13;;;;;;;39.08;26.10;;;8.40;99.90;;;;;;2072109;28;20506;-68
2021/11/12 03:16:15;;;;;;;42.80;28.55;;;8.40;99.90;;;;;;2071921;28;20347;-68
2021/11/12 03:17:16;;;;;;;38.50;27.63;;;8.40;99.90;;;;;;2070243;28;20410;-68
2021/11/12 03:18:17;;;;;;;39.95;26.67;;;8.40;99.90;;;;;;2071348;28;20034;-68
2021/11/12 03:19:21;;;;;;;44.25;29.70;;;8.40;99.90;;;;;;2069347;28;20030;-68
2021/11/12 03:20:23;;;;;;;43.17;28.77;;;8.40;99.90;;;;;;2072009;28;20029;-68
2021/11/12 03:21:25;;;;;;;38.67;27.10;;;8.40;99.90;;;;;;2071874;28;20029;-68
2021/11/12 03:22:32;;;;;;;39.97;26.25;;;8.40;99.90;;;;;;2071952;28;20363;-68
2021/11/12 03:23:40;;;;;;;34.92;25.20;;;8.40;99.90;;;;;;2071568;28;20044;-68
2021/11/12 03:24:48;;;;;;;36.33;25.70;;;8.40;99.90;;;;;;2072083;28;20062;-68
2021/11/12 03:27:06;;;;;;;42.80;27.15;;;8.30;99.90;;;;;;2072012;28;20044;-68
2021/11/12 03:28:39;;;;;;;32.75;25.15;;;8.30;99.90;;;;;;2071648;28;20033;-68
2021/11/12 03:50:00;;;;;;;34.63;22.90;;;8.10;99.90;;;;;;2070740;28;20037;-68
2021/11/12 04:01:42;;;;;;;29.40;20.42;;;7.80;99.90;;;;;;2069019;28;20469;-69
2021/11/12 04:02:57;;;;;;;27.80;19.65;;;7.80;99.90;;;;;;2071133;28;20033;-68
2021/11/12 04:07:20;;;;;;;29.48;20.27;;;7.80;99.90;;;;;;2071753;28;20022;-68
2021/11/12 04:20:32;;;;;;;27.60;18.02;;;7.50;99.90;;;;;;2071031;28;20029;-68
2021/11/12 04:21:51;;;;;;;27.20;18.30;;;7.50;99.90;;;;;;2071686;28;20022;-68
2021/11/12 04:41:05;;;;;;;19.98;14.85;;;7.00;99.90;;;;;;2069664;28;20037;-68
2021/11/12 04:50:05;;;;;;;18.48;13.68;;;6.80;99.90;;;;;;2068326;28;20081;-68
2021/11/12 05:12:14;;;;;;;11.90;10.60;;;6.40;99.90;;;;;;2074111;28;20030;-68
2021/11/12 05:44:22;;;;;;;13.50;11.23;;;5.90;99.90;;;;;;2066142;28;20023;-68
2021/11/12 05:45:45;;;;;;;13.45;10.85;;;5.90;99.90;;;;;;2067230;28;20026;-68
2021/11/12 05:50:33;;;;;;;16.67;12.82;;;5.80;99.90;;;;;;2068184;28;20030;-68
2021/11/12 05:55:19;;;;;;;16.50;13.38;;;5.90;99.90;;;;;;2067588;28;20672;-68
2021/11/12 05:56:19;;;;;;;17.02;14.13;;;5.80;99.90;;;;;;2067918;28;20033;-68
2021/11/12 05:57:20;;;;;;;18.13;14.68;;;5.90;99.90;;;;;;2067132;28;20032;-68
2021/11/12 05:58:21;;;;;;;17.23;14.65;;;5.90;99.90;;;;;;2067118;28;20034;-68
2021/11/12 05:59:23;;;;;;;18.27;14.48;;;5.90;99.90;;;;;;2067099;28;20023;-68
2021/11/12 06:00:24;;;;;;;19.75;16.15;;;5.90;99.90;;;;;;2067172;28;20097;-68
2021/11/12 06:01:25;;;;;;;18.10;16.20;;;5.90;99.90;;;;;;2069290;28;20018;-68
2021/11/12 06:02:25;;;;;;;20.60;15.07;;;5.90;99.90;;;;;;2068647;28;20026;-68
2021/11/12 06:03:26;;;;;;;21.92;16.70;;;5.90;99.90;;;;;;2068741;28;20069;-68
2021/11/12 06:04:27;;;;;;;20.88;17.58;;;5.90;99.90;;;;;;2069867;28;20451;-68
2021/11/12 06:05:27;;;;;;;20.30;18.00;;;5.90;99.90;;;;;;2065129;28;20058;-68
2021/11/12 06:06:28;;;;;;;24.65;18.52;;;5.90;99.90;;;;;;2071262;28;20042;-68
2021/11/12 06:07:29;;;;;;;21.52;19.02;;;5.90;99.90;;;;;;2066241;28;20058;-68
2021/11/12 06:08:29;;;;;;;22.27;19.35;;;5.90;99.90;;;;;;2069340;28;20037;-68
2021/11/12 06:09:30;;;;;;;22.00;18.00;;;5.90;99.90;;;;;;2067693;28;20031;-68
2021/11/12 06:10:31;;;;;;;27.88;21.50;;;5.90;99.90;;;;;;2066761;28;20624;-68
2021/11/12 06:11:32;;;;;;;25.33;21.55;;;5.90;99.90;;;;;;2070167;28;20479;-68
2021/11/12 06:12:33;;;;;;;23.35;20.65;;;5.80;99.90;;;;;;2066604;28;20022;-68
2021/11/12 06:13:34;;;;;;;26.38;21.60;;;5.80;99.90;;;;;;2065699;28;20026;-68
2021/11/12 06:14:35;;;;;;;27.10;21.30;;;5.80;99.90;;;;;;2066636;28;20056;-68
2021/11/12 06:15:35;;;;;;;26.67;22.38;;;5.80;99.90;;;;;;2070114;28;20030;-68
2021/11/12 06:16:36;;;;;;;28.45;22.17;;;5.80;99.90;;;;;;2066804;28;20840;-68
2021/11/12 06:17:37;;;;;;;29.15;23.63;;;5.80;99.90;;;;;;2065103;28;20061;-68
2021/11/12 06:18:38;;;;;;;25.85;21.85;;;5.80;99.90;;;;;;2067191;28;20149;-68
2021/11/12 06:19:39;;;;;;;29.33;23.45;;;5.70;99.90;;;;;;2065466;28;20582;-68
2021/11/12 06:20:40;;;;;;;29.48;23.80;;;5.70;99.90;;;;;;2066225;28;20030;-68
2021/11/12 06:21:40;;;;;;;27.88;22.77;;;5.80;99.90;;;;;;2070492;28;20053;-68
2021/11/12 06:22:41;;;;;;;30.27;23.55;;;5.70;99.90;;;;;;2065913;28;20808;-68
2021/11/12 06:23:42;;;;;;;31.17;24.13;;;5.70;99.90;;;;;;2070401;28;20069;-68
2021/11/12 06:24:42;;;;;;;30.45;23.90;;;5.70;99.90;;;;;;2068022;28;20462;-68
2021/11/12 06:25:43;;;;;;;32.53;25.23;;;5.70;99.90;;;;;;2066924;28;20022;-68
2021/11/12 06:26:43;;;;;;;29.85;24.27;;;5.70;99.90;;;;;;2071089;28;20057;-68
2021/11/12 06:27:44;;;;;;;31.65;24.38;;;5.70;99.90;;;;;;2066315;28;20060;-68
2021/11/12 06:28:45;;;;;;;31.48;24.90;;;5.70;99.90;;;;;;2065755;28;20149;-68
2021/11/12 06:29:46;;;;;;;28.58;24.88;;;5.70;99.90;;;;;;2066887;28;20029;-68
2021/11/12 06:30:49;;;;;;;31.17;25.60;;;5.80;99.90;;;;;;2066708;28;20084;-69
2021/11/12 06:31:49;;;;;;;33.63;25.83;;;5.80;99.90;;;;;;2068605;28;20081;-68
2021/11/12 06:32:50;;;;;;;31.65;25.15;;;5.80;99.90;;;;;;2067518;28;20072;-68
2021/11/12 06:33:51;;;;;;;30.63;25.65;;;5.80;99.90;;;;;;2068318;28;20030;-68
2021/11/12 06:34:52;;;;;;;32.58;24.30;;;5.80;99.90;;;;;;2068584;28;20049;-68
2021/11/12 06:35:53;;;;;;;31.55;26.63;;;5.80;99.90;;;;;;2067839;28;20061;-68
2021/11/12 06:36:54;;;;;;;31.42;25.67;;;5.80;99.90;;;;;;2068988;28;20030;-68
2021/11/12 06:37:55;;;;;;;31.83;25.75;;;5.80;99.90;;;;;;2065564;28;20097;-68
2021/11/12 06:38:56;;;;;;;31.38;26.13;;;5.80;99.90;;;;;;2070033;28;20089;-68
2021/11/12 06:39:57;;;;;;;34.25;26.60;;;5.80;99.90;;;;;;2071718;28;20022;-68
2021/11/12 06:41:01;;;;;;;34.50;26.20;;;5.80;99.90;;;;;;2070004;28;20080;-68
2021/11/12 06:42:09;;;;;;;33.92;26.52;;;5.80;99.90;;;;;;2068017;28;20022;-68
2021/11/12 06:43:23;;;;;;;31.50;26.50;;;5.80;99.90;;;;;;2069356;28;20049;-68
2021/11/12 06:44:43;;;;;;;30.23;26.10;;;5.80;99.90;;;;;;2066843;28;20033;-68
2021/11/12 06:51:15;;;;;;;31.08;24.75;;;5.80;99.90;;;;;;2063946;28;20038;-68
2021/11/12 06:52:16;;;;;;;31.17;26.17;;;5.80;99.90;;;;;;2069869;28;20046;-68
2021/11/12 06:53:17;;;;;;;28.50;24.77;;;5.90;99.90;;;;;;2070268;28;20367;-68
2021/11/12 06:54:18;;;;;;;32.33;27.17;;;5.90;99.90;;;;;;2068522;28;20050;-68
2021/11/12 06:55:19;;;;;;;28.70;25.50;;;5.90;99.90;;;;;;2071712;28;20037;-68
2021/11/12 06:56:21;;;;;;;30.38;26.92;;;5.90;99.90;;;;;;2071136;28;20058;-68
2021/11/12 06:57:23;;;;;;;31.65;26.67;;;5.90;99.90;;;;;;2065520;28;20014;-68
2021/11/12 06:58:23;;;;;;;31.83;27.35;;;5.90;99.90;;;;;;2071382;28;20037;-68
2021/11/12 06:59:25;;;;;;;30.73;26.02;;;6.00;99.90;;;;;;2067037;28;20024;-68
2021/11/12 07:00:26;;;;;;;29.88;25.63;;;6.00;99.90;;;;;;2066918;28;20025;-68
2021/11/12 07:01:27;;;;;;;31.48;25.95;;;6.00;99.90;;;;;;2066583;28;20637;-68
2021/11/12 07:02:28;;;;;;;32.60;26.55;;;6.00;99.90;;;;;;2071555;28;20137;-68
2021/11/12 07:03:28;;;;;;;30.23;25.85;;;6.00;99.90;;;;;;2066825;28;20059;-68
2021/11/12 07:04:29;;;;;;;28.33;25.33;;;6.00;99.90;;;;;;2070770;28;20141;-69
2021/11/12 07:05:29;;;;;;;29.52;26.33;;;6.00;99.90;;;;;;2071417;28;20055;-68
2021/11/12 07:06:30;;;;;;;28.80;25.70;;;6.00;99.90;;;;;;2065745;28;20479;-68
2021/11/12 07:07:31;;;;;;;28.27;25.25;;;6.00;99.90;;;;;;2068709;28;20045;-68
2021/11/12 07:08:32;;;;;;;30.45;26.27;;;6.10;99.90;;;;;;2070253;28;20026;-68
2021/11/12 07:09:34;;;;;;;28.45;24.75;;;6.10;99.90;;;;;;2067999;28;20033;-68
2021/11/12 07:10:36;;;;;;;31.15;26.40;;;6.10;99.90;;;;;;2070729;28;20040;-68
2021/11/12 07:11:37;;;;;;;28.63;25.52;;;6.10;99.90;;;;;;2071161;28;20042;-68
2021/11/12 07:12:38;;;;;;;27.33;24.48;;;6.10;99.90;;;;;;2069901;28;20076;-68
2021/11/12 07:13:39;;;;;;;29.50;25.27;;;6.10;99.90;;;;;;2067205;28;20071;-68
2021/11/12 07:14:40;;;;;;;26.90;23.52;;;6.10;99.90;;;;;;2066914;28;20022;-68
2021/11/12 07:15:40;;;;;;;27.38;24.55;;;6.10;99.90;;;;;;2068245;28;20033;-68
2021/11/12 07:16:42;;;;;;;29.30;24.58;;;6.10;99.90;;;;;;2067315;28;20359;-68
2021/11/12 07:17:42;;;;;;;26.20;23.50;;;6.20;99.90;;;;;;2068552;28;20057;-69
2021/11/12 07:18:44;;;;;;;28.00;24.58;;;6.10;99.90;;;;;;2067464;28;20084;-69
2021/11/12 07:19:45;;;;;;;27.02;24.13;;;6.20;99.90;;;;;;2071702;28;20022;-68
2021/11/12 07:20:47;;;;;;;27.83;24.90;;;6.20;99.90;;;;;;2066223;28;20536;-68
2021/11/12 07:21:47;;;;;;;26.40;23.55;;;6.20;99.90;;;;;;2069642;28;20045;-68
2021/11/12 07:22:48;;;;;;;29.23;24.75;;;6.20;99.90;;;;;;2071780;28;20029;-68
2021/11/12 07:23:49;;;;;;;27.98;24.95;;;6.20;99.90;;;;;;2076020;28;20025;-69
2021/11/12 07:24:49;;;;;;;26.80;24.05;;;6.20;99.90;;;;;;2073564;28;20022;-68
2021/11/12 07:25:51;;;;;;;28.98;25.77;;;6.20;99.90;;;;;;2071942;28;20029;-68
2021/11/12 07:26:51;;;;;;;28.52;24.25;;;6.30;99.90;;;;;;2072111;28;20030;-68
2021/11/12 07:27:52;;;;;;;29.45;24.55;;;6.30;99.90;;;;;;2071397;28;20068;-69
2021/11/12 07:28:53;;;;;;;28.30;24.40;;;6.30;99.90;;;;;;2068948;28;20057;-69
2021/11/12 07:29:53;;;;;;;28.13;25.13;;;6.30;99.90;;;;;;2068634;28;20113;-68
2021/11/12 07:30:55;;;;;;;29.90;25.00;;;6.30;99.90;;;;;;2071696;28;20026;-69
2021/11/12 07:31:56;;;;;;;31.25;25.58;;;6.30;99.90;;;;;;2071814;28;20483;-68
2021/11/12 07:32:57;;;;;;;28.58;24.33;;;6.30;99.90;;;;;;2068339;28;20045;-68
2021/11/12 07:34:00;;;;;;;28.15;25.08;;;6.30;99.90;;;;;;2069640;28;20447;-68
2021/11/12 07:35:01;;;;;;;27.27;23.13;;;6.30;99.90;;;;;;2071356;28;20238;-68
2021/11/12 07:36:22;;;;;;;28.90;24.75;;;6.40;99.90;;;;;;2067580;28;20026;-68
2021/11/12 07:37:27;;;;;;;25.83;22.90;;;6.40;99.90;;;;;;2065462;28;20426;-68
2021/11/12 07:38:32;;;;;;;29.38;23.02;;;6.40;99.90;;;;;;2070422;28;20025;-68
2021/11/12 07:44:15;;;;;;;26.55;23.80;;;6.40;99.90;;;;;;2064998;28;20033;-69
2021/11/12 07:45:31;;;;;;;25.95;23.05;;;6.40;99.90;;;;;;2070160;28;20030;-69
2021/11/12 07:47:33;;;;;;;27.08;24.17;;;6.40;99.90;;;;;;2072027;28;20422;-69
2021/11/12 07:48:34;;;;;;;27.63;24.50;;;6.40;99.90;;;;;;2078628;28;20033;-69
2021/11/12 07:49:36;;;;;;;26.75;24.05;;;6.40;99.90;;;;;;2071034;28;20064;-69
2021/11/12 07:50:37;;;;;;;29.77;25.45;;;6.40;99.90;;;;;;2070183;28;20478;-69
2021/11/12 07:51:40;;;;;;;28.52;23.65;;;6.40;99.90;;;;;;2073941;28;20377;-69
2021/11/12 07:52:41;;;;;;;28.48;23.55;;;6.50;99.90;;;;;;2076835;28;20373;-68
2021/11/12 07:53:42;;;;;;;25.58;22.90;;;6.50;99.90;;;;;;2069591;28;20026;-68
2021/11/12 07:54:43;;;;;;;28.20;24.70;;;6.50;99.90;;;;;;2070605;28;20085;-68
2021/11/12 07:55:43;;;;;;;26.25;23.42;;;6.50;99.90;;;;;;2072045;28;20060;-69
2021/11/12 07:56:45;;;;;;;28.17;24.15;;;6.50;99.90;;;;;;2071576;28;20160;-69
2021/11/12 07:57:45;;;;;;;26.88;24.10;;;6.50;99.90;;;;;;2070343;28;20108;-70
2021/11/12 07:58:46;;;;;;;25.42;22.77;;;6.50;99.90;;;;;;2070284;28;20029;-69
2021/11/12 07:59:47;;;;;;;27.55;24.20;;;6.60;99.90;;;;;;2070721;28;20034;-69
2021/11/12 08:00:48;;;;;;;26.05;23.20;;;6.60;99.90;;;;;;2069319;28;20026;-70
2021/11/12 08:01:49;;;;;;;27.55;24.63;;;6.60;99.90;;;;;;2071771;28;20033;-69
2021/11/12 08:02:49;;;;;;;26.50;23.65;;;6.60;99.90;;;;;;2071575;28;20137;-69
2021/11/12 08:03:54;;;;;;;26.05;23.25;;;6.60;99.90;;;;;;2071895;28;20502;-69
2021/11/12 08:05:07;;;;;;;25.33;22.75;;;6.60;99.90;;;;;;2071234;28;20018;-69
2021/11/12 08:06:11;;;;;;;25.20;22.50;;;6.60;99.90;;;;;;2063722;28;20129;-69
2021/11/12 08:07:13;;;;;;;26.85;22.67;;;6.60;99.90;;;;;;2068307;28;20524;-69
2021/11/12 08:08:16;;;;;;;28.98;24.40;;;6.60;99.90;;;;;;2070466;28;20113;-69
2021/11/12 08:09:19;;;;;;;26.45;23.65;;;6.70;99.90;;;;;;2071020;28;20057;-69
2021/11/12 08:10:21;;;;;;;25.85;23.15;;;6.70;99.90;;;;;;2070822;28;20041;-69
2021/11/12 08:11:31;;;;;;;25.42;22.75;;;6.70;99.90;;;;;;2071665;28;20024;-69
2021/11/12 08:12:41;;;;;;;26.92;23.20;;;6.70;99.90;;;;;;2071125;28;20048;-69
2021/11/12 08:13:53;;;;;;;26.27;23.20;;;6.70;99.90;;;;;;2071531;28;20141;-69
2021/11/12 08:16:20;;;;;;;29.27;23.75;;;6.70;99.90;;;;;;2070818;28;20026;-69
2021/11/12 08:19:48;;;;;;;29.83;24.10;;;6.80;99.90;;;;;;2071342;28;20034;-69
2021/11/12 08:24:38;;;;;;;25.92;23.23;;;6.90;99.90;;;;;;2071667;28;20033;-69